Time;durP1;ratioP1;P1;durP2;ratioP2;P2;SDS_P1;SDS_P2;PMS_P1;PMS_P2;Temp;Humidity;BMP_temperature;BMP_pressure;BME280_temperature;BME280_humidity;BME280_pressure;Samples;Min_cycle;Max_cycle;Signal;HPM_P1;HPM_P2
2023/02/23 00:03:48;;;;;;;99.70;52.78;;;;;;;9.19;100.00;100759.84;5111139;27;20383;-54
2023/02/23 00:06:17;;;;;;;104.18;55.45;;;;;;;9.18;100.00;100751.03;5110768;28;20367;-54
2023/02/23 00:08:46;;;;;;;103.38;53.78;;;;;;;9.10;100.00;100760.69;5110978;28;20535;-54
2023/02/23 00:11:15;;;;;;;101.15;53.35;;;;;;;9.12;100.00;100758.75;5110806;28;20093;-55
2023/02/23 00:13:45;;;;;;;101.53;53.25;;;;;;;9.23;100.00;100755.91;5110961;28;20039;-55
2023/02/23 00:16:14;;;;;;;105.53;52.92;;;;;;;9.23;100.00;100751.44;5110664;28;20040;-55
2023/02/23 00:18:49;;;;;;;88.72;49.33;;;;;;;9.29;100.00;100754.50;5110675;28;20481;-55
2023/02/23 00:21:22;;;;;;;94.05;49.40;;;;;;;9.31;100.00;100748.06;5110692;28;20044;-55
2023/02/23 00:23:53;;;;;;;87.20;49.05;;;;;;;9.37;100.00;100744.03;5110878;28;20036;-54
2023/02/23 00:26:23;;;;;;;85.97;48.63;;;;;;;9.36;100.00;100748.47;5109537;28;20056;-55
2023/02/23 00:28:51;;;;;;;92.95;49.50;;;;;;;9.36;100.00;100752.94;5110849;28;20117;-55
2023/02/23 00:31:24;;;;;;;93.22;47.47;;;;;;;9.36;100.00;100745.81;5110539;28;20116;-55
2023/02/23 00:33:53;;;;;;;93.18;47.72;;;;;;;9.36;100.00;100751.09;5110807;28;20397;-55
2023/02/23 00:36:22;;;;;;;90.55;49.35;;;;;;;9.37;100.00;100744.84;5110147;28;20044;-55
2023/02/23 00:38:53;;;;;;;92.43;48.28;;;;;;;9.35;100.00;100752.09;5108912;28;20550;-55
2023/02/23 00:41:28;;;;;;;96.67;49.70;;;;;;;9.34;100.00;100753.06;5110779;28;20075;-55
2023/02/23 00:43:57;;;;;;;87.82;48.33;;;;;;;9.36;100.00;100751.09;5110348;28;20496;-55
2023/02/23 00:46:28;;;;;;;90.70;48.83;;;;;;;9.34;100.00;100745.13;5109247;28;20040;-55
2023/02/23 00:48:57;;;;;;;85.93;48.05;;;;;;;9.35;100.00;100749.47;5110059;28;20043;-54
2023/02/23 00:51:29;;;;;;;94.82;48.78;;;;;;;9.20;100.00;100746.47;5110205;28;20075;-54
2023/02/23 00:53:57;;;;;;;;;;;;;;;9.12;100.00;100748.16;5109500;28;20067;-54
2023/02/23 00:56:24;;;;;;;84.32;45.08;;;;;;;9.15;100.00;100739.91;5110462;28;19928;-55
2023/02/23 00:58:50;;;;;;;95.20;48.75;;;;;;;9.18;100.00;100744.91;5109904;28;20136;-55
2023/02/23 01:01:18;;;;;;;89.47;47.55;;;;;;;9.25;100.00;100748.66;5108987;28;20477;-54
2023/02/23 01:03:45;;;;;;;85.88;46.55;;;;;;;9.03;100.00;100745.38;5109582;28;20039;-54
2023/02/23 01:06:15;;;;;;;83.90;45.65;;;;;;;9.08;100.00;100747.59;5110007;28;20047;-54
2023/02/23 01:08:45;;;;;;;88.72;48.47;;;;;;;9.21;100.00;100745.47;5110025;28;20046;-54
2023/02/23 01:11:14;;;;;;;88.70;49.03;;;;;;;9.25;100.00;100742.53;5109037;28;20048;-55
2023/02/23 01:13:45;;;;;;;92.57;48.47;;;;;;;9.22;100.00;100741.84;5104539;28;20048;-55
2023/02/23 01:16:17;;;;;;;91.97;48.72;;;;;;;9.28;100.00;100740.44;5073807;28;20059;-55
2023/02/23 01:18:44;;;;;;;92.18;49.28;;;;;;;9.28;100.00;100745.72;5115743;28;20040;-55
2023/02/23 01:21:23;;;;;;;88.88;50.17;;;;;;;9.22;100.00;100736.56;5100529;28;20070;-55
2023/02/23 01:23:52;;;;;;;97.25;50.00;;;;;;;9.17;100.00;100740.63;5096002;28;20127;-54
2023/02/23 01:26:23;;;;;;;91.70;49.00;;;;;;;9.15;100.00;100738.09;5096250;28;20044;-54
2023/02/23 01:28:55;;;;;;;92.25;48.17;;;;;;;9.14;100.00;100735.59;5096022;28;20079;-55
2023/02/23 01:31:25;;;;;;;89.60;48.63;;;;;;;9.16;100.00;100736.28;5096028;28;20444;-55
2023/02/23 01:33:53;;;;;;;89.00;49.10;;;;;;;9.16;100.00;100741.59;5095973;28;20531;-54
2023/02/23 01:36:20;;;;;;;92.93;49.60;;;;;;;9.18;100.00;100742.28;5095871;28;20519;-55
2023/02/23 01:38:48;;;;;;;86.32;48.88;;;;;;;9.22;100.00;100735.69;5095552;28;20040;-55
2023/02/23 01:41:15;;;;;;;94.68;50.50;;;;;;;9.22;100.00;100741.00;5095760;28;20432;-54
2023/02/23 01:44:03;;;;;;;87.68;49.00;;;;;;;9.26;100.00;100736.25;5095926;28;20051;-54
2023/02/23 01:46:34;;;;;;;90.30;47.72;;;;;;;9.00;100.00;100740.41;5095448;28;20051;-55
2023/02/23 01:49:02;;;;;;;92.35;50.25;;;;;;;8.85;100.00;100736.53;5095430;28;20052;-54
2023/02/23 01:51:39;;;;;;;89.80;49.30;;;;;;;8.92;100.00;100734.16;5095378;28;20058;-54
2023/02/23 01:54:13;;;;;;;91.93;48.33;;;;;;;8.91;100.00;100737.75;5094613;28;20531;-55
2023/02/23 01:56:56;;;;;;;91.15;48.80;;;;;;;8.83;100.00;100736.66;5094394;28;20047;-55
2023/02/23 01:59:31;;;;;;;91.07;49.30;;;;;;;8.75;100.00;100736.56;5094890;28;20068;-55
2023/02/23 02:02:00;;;;;;;94.40;49.78;;;;;;;8.73;100.00;100741.16;5094639;28;20512;-55
2023/02/23 02:04:27;;;;;;;95.72;51.67;;;;;;;8.67;100.00;100740.88;5095121;28;20432;-55
2023/02/23 02:07:02;;;;;;;89.32;49.67;;;;;;;8.64;100.00;100737.53;5095122;28;20038;-55
2023/02/23 02:09:36;;;;;;;98.55;51.38;;;;;;;8.54;100.00;100739.34;5095367;28;20050;-55
2023/02/23 02:12:07;;;;;;;103.68;50.88;;;;;;;8.61;100.00;100740.47;5095294;28;20051;-55
2023/02/23 02:14:35;;;;;;;97.15;51.60;;;;;;;8.72;100.00;100738.63;5094925;28;20401;-55
2023/02/23 02:25:41;;;;;;;93.25;50.70;;;;;;;8.80;100.00;100736.09;5111156;27;20834;-55
2023/02/23 02:28:42;;;;;;;92.38;49.97;;;;;;;8.88;100.00;100733.59;5110979;28;20501;-55
2023/02/23 02:37:06;;;;;;;90.55;48.45;;;;;;;8.65;100.00;100739.19;5110693;27;20358;-55
2023/02/23 02:39:54;;;;;;;97.82;48.90;;;;;;;8.61;100.00;100729.88;5111178;28;20044;-55
2023/02/23 02:42:44;;;;;;;92.72;50.90;;;;;;;8.73;100.00;100732.34;5111029;28;20056;-54
2023/02/23 02:45:24;;;;;;;98.47;51.83;;;;;;;8.84;100.00;100734.84;5111038;28;20492;-54
2023/02/23 02:50:52;;;;;;;93.90;51.80;;;;;;;8.70;100.00;100730.03;5111011;27;20354;-54
2023/02/23 02:53:35;;;;;;;92.72;49.28;;;;;;;8.82;100.00;100729.72;5111017;28;20074;-54
2023/02/23 02:56:04;;;;;;;96.88;50.92;;;;;;;8.81;100.00;100728.03;5111366;28;20076;-54
2023/02/23 02:58:35;;;;;;;96.47;49.65;;;;;;;8.81;100.00;100722.75;5110746;28;20405;-54
2023/02/23 04:17:48;;;;;;;135.60;54.60;;;;;;;8.34;100.00;100757.00;5110938;27;20376;-55
2023/02/23 04:20:15;;;;;;;136.98;55.83;;;;;;;8.41;100.00;100754.66;5110827;28;20093;-55
2023/02/23 04:22:42;;;;;;;132.63;54.97;;;;;;;8.47;100.00;100750.63;5111085;28;20047;-55
2023/02/23 04:25:08;;;;;;;135.60;55.10;;;;;;;8.47;100.00;100755.91;5110877;28;20431;-55
2023/02/23 04:27:36;;;;;;;140.02;55.40;;;;;;;8.52;100.00;100757.16;5110964;28;20075;-54
2023/02/23 04:30:04;;;;;;;131.35;54.25;;;;;;;8.49;100.00;100756.63;5111104;28;20098;-54
2023/02/23 04:32:31;;;;;;;128.77;55.50;;;;;;;8.52;100.00;100759.81;5110874;28;20555;-55
2023/02/23 04:34:58;;;;;;;126.85;53.85;;;;;;;8.45;100.00;100761.34;5110876;28;20565;-55
2023/02/23 04:37:24;;;;;;;125.53;54.50;;;;;;;8.35;100.00;100760.47;5110834;28;20484;-55
2023/02/23 04:39:51;;;;;;;128.35;54.80;;;;;;;8.34;100.00;100759.66;5110610;28;20054;-55
2023/02/23 04:42:18;;;;;;;123.35;53.92;;;;;;;8.31;100.00;100756.44;5110825;28;20100;-55
2023/02/23 04:44:45;;;;;;;127.78;53.67;;;;;;;8.35;100.00;100756.03;5110581;28;20036;-55
2023/02/23 04:47:14;;;;;;;127.30;52.28;;;;;;;8.37;100.00;100758.56;5109596;28;20046;-54
2023/02/23 04:49:42;;;;;;;115.10;50.30;;;;;;;8.36;100.00;100759.50;5110458;28;20058;-55
2023/02/23 04:52:08;;;;;;;112.43;50.38;;;;;;;8.30;100.00;100757.44;5110406;28;20040;-55
2023/02/23 04:54:38;;;;;;;114.65;50.38;;;;;;;8.34;100.00;100764.94;5110462;28;20040;-55
2023/02/23 04:57:06;;;;;;;105.35;46.90;;;;;;;8.31;100.00;100753.78;5110605;28;20040;-55
2023/02/23 04:59:32;;;;;;;118.85;46.90;;;;;;;8.36;100.00;100754.22;5109873;28;20400;-55
2023/02/23 05:01:59;;;;;;;102.15;43.88;;;;;;;8.27;100.00;100758.53;5110279;28;20083;-54
2023/02/23 05:04:27;;;;;;;104.72;45.90;;;;;;;8.30;100.00;100755.63;5110046;28;20040;-53
2023/02/23 05:06:53;;;;;;;101.68;45.40;;;;;;;8.29;100.00;100758.41;5109677;28;20501;-55
2023/02/23 05:09:20;;;;;;;104.00;45.72;;;;;;;8.29;100.00;100759.22;5109995;28;20055;-54
2023/02/23 05:11:47;;;;;;;103.85;45.70;;;;;;;8.31;100.00;100762.56;5109754;28;20040;-55
2023/02/23 05:14:13;;;;;;;105.38;46.53;;;;;;;8.23;100.00;100759.78;5109901;28;20043;-55
2023/02/23 05:16:40;;;;;;;104.45;47.08;;;;;;;8.32;100.00;100769.53;5106450;28;20044;-53
2023/02/23 05:19:07;;;;;;;104.40;45.53;;;;;;;8.26;100.00;100772.72;5108505;28;20044;-55
2023/02/23 05:21:33;;;;;;;102.68;45.83;;;;;;;8.21;100.00;100767.03;5109337;28;20546;-55
2023/02/23 05:24:01;;;;;;;106.18;48.17;;;;;;;8.16;100.00;100769.22;5109817;28;20093;-56
2023/02/23 05:26:28;;;;;;;107.55;46.35;;;;;;;8.19;100.00;100769.78;5109786;28;20074;-55
2023/02/23 05:28:55;;;;;;;118.05;49.22;;;;;;;8.27;100.00;100774.38;5097636;28;20070;-55
2023/02/23 05:31:23;;;;;;;120.07;48.03;;;;;;;8.32;100.00;100766.88;5094911;28;20047;-55
2023/02/23 05:33:50;;;;;;;107.07;47.20;;;;;;;8.26;100.00;100775.38;5096390;28;20048;-55
2023/02/23 05:36:19;;;;;;;114.13;48.63;;;;;;;8.26;100.00;100768.28;5095726;28;20535;-55
2023/02/23 05:38:47;;;;;;;112.22;48.95;;;;;;;8.29;100.00;100777.72;5096092;28;20044;-55
2023/02/23 05:41:17;;;;;;;117.88;51.67;;;;;;;8.35;100.00;100769.25;5094415;28;20074;-54
2023/02/23 05:43:46;;;;;;;124.20;52.40;;;;;;;8.26;100.00;100784.13;5096218;28;20069;-55
2023/02/23 05:46:18;;;;;;;123.75;53.55;;;;;;;8.17;100.00;100774.38;5095562;28;20070;-54
2023/02/23 05:48:45;;;;;;;130.73;53.88;;;;;;;8.28;100.00;100770.78;5095553;28;20075;-55
2023/02/23 05:51:14;;;;;;;122.93;52.15;;;;;;;8.26;100.00;100776.19;5094361;28;20121;-55
2023/02/23 05:53:41;;;;;;;115.47;51.97;;;;;;;8.18;100.00;100775.22;5094398;28;20401;-55
2023/02/23 05:56:11;;;;;;;127.68;53.53;;;;;;;8.21;100.00;100774.94;5095496;28;20367;-55
2023/02/23 05:58:39;;;;;;;121.70;52.35;;;;;;;8.26;100.00;100780.66;5095199;28;20385;-55
2023/02/23 06:01:05;;;;;;;120.22;52.10;;;;;;;8.25;100.00;100784.25;5094829;28;20075;-55
2023/02/23 06:03:33;;;;;;;114.10;52.20;;;;;;;8.29;100.00;100776.91;5095243;28;20054;-55
2023/02/23 06:05:59;;;;;;;123.15;54.30;;;;;;;8.30;100.00;100783.88;5095146;28;20068;-55
2023/02/23 06:08:26;;;;;;;115.70;51.65;;;;;;;8.32;100.00;100779.28;5095011;28;20044;-55
2023/02/23 06:10:53;;;;;;;124.43;54.53;;;;;;;8.25;100.00;100781.63;5095003;28;20044;-54
2023/02/23 06:13:20;;;;;;;123.57;53.65;;;;;;;8.40;100.00;100782.91;5094992;28;20148;-55
2023/02/23 06:15:48;;;;;;;122.78;54.03;;;;;;;8.31;100.00;100788.97;5094590;28;20048;-54
2023/02/23 06:18:16;;;;;;;122.85;52.50;;;;;;;8.19;100.00;100798.88;5094842;28;20516;-55
2023/02/23 06:20:44;;;;;;;125.45;52.85;;;;;;;7.98;100.00;100793.66;5094472;28;20101;-55
2023/02/23 06:23:11;;;;;;;127.40;54.42;;;;;;;8.01;100.00;100795.22;5110692;28;20077;-55
2023/02/23 06:25:39;;;;;;;130.60;56.15;;;;;;;8.14;100.00;100797.59;5095057;28;20551;-54
2023/02/23 06:28:07;;;;;;;126.85;55.25;;;;;;;8.23;100.00;100800.25;5093833;28;20122;-55
2023/02/23 06:30:34;;;;;;;129.40;54.88;;;;;;;8.21;100.00;100793.44;5095011;28;20048;-55
2023/02/23 06:33:01;;;;;;;136.68;54.70;;;;;;;8.20;100.00;100802.34;5093579;28;20051;-55
2023/02/23 06:35:28;;;;;;;132.73;55.38;;;;;;;8.25;100.00;100802.75;5094692;28;20044;-55
2023/02/23 06:37:55;;;;;;;125.95;55.47;;;;;;;8.35;100.00;100808.91;5094316;28;20420;-55
2023/02/23 06:40:22;;;;;;;130.38;55.28;;;;;;;8.40;100.00;100808.47;5093360;28;20401;-55
2023/02/23 06:42:49;;;;;;;130.35;55.42;;;;;;;8.35;100.00;100813.34;5094689;28;20051;-55
2023/02/23 06:45:18;;;;;;;126.03;54.95;;;;;;;8.33;100.00;100815.28;5094312;28;20134;-54
2023/02/23 06:47:46;;;;;;;132.18;55.70;;;;;;;8.38;100.00;100815.72;5094068;28;20036;-55
2023/02/23 06:50:13;;;;;;;133.40;54.40;;;;;;;8.36;100.00;100823.78;5093928;28;20400;-55
2023/02/23 06:52:40;;;;;;;122.93;53.83;;;;;;;8.34;100.00;100822.25;5092300;28;20127;-55
2023/02/23 06:55:09;;;;;;;129.32;53.15;;;;;;;8.26;100.00;100822.94;5092751;28;20052;-55
2023/02/23 06:57:35;;;;;;;130.40;53.35;;;;;;;8.28;100.00;100826.28;5094181;28;20051;-55
2023/02/23 07:00:03;;;;;;;135.30;56.78;;;;;;;8.26;100.00;100825.59;5093714;28;20048;-55
2023/02/23 07:02:30;;;;;;;136.52;55.47;;;;;;;8.17;100.00;100829.88;5093846;28;20048;-55
2023/02/23 07:04:57;;;;;;;128.68;53.95;;;;;;;8.19;100.00;100829.75;5093709;28;20039;-55
2023/02/23 07:07:24;;;;;;;138.05;54.53;;;;;;;8.27;100.00;100832.53;5085765;28;20048;-55
2023/02/23 07:09:51;;;;;;;129.82;54.55;;;;;;;8.34;100.00;100840.75;5094204;28;20048;-55
2023/02/23 07:12:17;;;;;;;127.53;53.83;;;;;;;8.36;100.00;100838.81;5093939;28;20371;-54
2023/02/23 07:14:44;;;;;;;125.50;54.72;;;;;;;8.38;100.00;100840.31;5092492;28;20040;-54
2023/02/23 07:17:11;;;;;;;111.22;50.92;;;;;;;8.45;100.00;100851.22;5076567;28;20044;-58
2023/02/23 07:19:38;;;;;;;111.30;52.00;;;;;;;8.55;100.00;100849.44;5083662;28;20052;-57
2023/02/23 07:22:05;;;;;;;105.07;51.03;;;;;;;8.41;100.00;100847.16;5092506;28;20044;-57
2023/02/23 07:24:31;;;;;;;112.10;51.85;;;;;;;8.38;100.00;100852.72;5093997;28;20044;-57
2023/02/23 07:26:58;;;;;;;114.13;51.03;;;;;;;8.43;100.00;100853.19;5092608;28;20048;-57
2023/02/23 07:29:26;;;;;;;110.88;50.03;;;;;;;8.44;100.00;100853.06;5093643;28;20040;-57
2023/02/23 07:31:54;;;;;;;105.80;50.17;;;;;;;8.42;100.00;100851.50;5093393;28;20404;-57
2023/02/23 07:34:21;;;;;;;100.65;48.50;;;;;;;8.27;100.00;100857.13;5093373;28;20055;-57
2023/02/23 07:36:47;;;;;;;102.30;50.03;;;;;;;8.34;100.00;100862.72;5093445;28;20055;-57
2023/02/23 07:39:14;;;;;;;98.75;48.53;;;;;;;8.32;100.00;100863.84;5093604;28;20424;-58
2023/02/23 07:41:41;;;;;;;93.65;47.38;;;;;;;8.19;100.00;100864.94;5093385;28;20401;-57
2023/02/23 07:44:16;;;;;;;94.53;46.08;;;;;;;8.23;100.00;100870.78;5088745;28;20442;-56
2023/02/23 07:46:45;;;;;;;96.32;45.80;;;;;;;8.21;100.00;100870.09;5083779;28;20046;-56
2023/02/23 07:49:11;;;;;;;89.93;44.58;;;;;;;8.24;100.00;100872.44;5092624;28;20127;-56
2023/02/23 07:51:39;;;;;;;94.82;46.88;;;;;;;8.25;100.00;100871.47;5092016;28;20097;-56
2023/02/23 07:54:06;;;;;;;99.70;47.55;;;;;;;8.30;100.00;100877.19;5091165;28;20454;-56
2023/02/23 07:56:34;;;;;;;89.70;47.22;;;;;;;8.27;100.00;100867.72;5092316;28;20493;-56
2023/02/23 07:59:02;;;;;;;85.85;44.58;;;;;;;8.34;100.00;100869.84;5092287;28;20452;-56
2023/02/23 08:01:29;;;;;;;91.90;45.83;;;;;;;8.39;100.00;100875.56;5091010;28;20040;-56
2023/02/23 08:03:56;;;;;;;87.53;45.25;;;;;;;8.43;100.00;100877.81;5092157;28;20048;-56
2023/02/23 08:06:23;;;;;;;90.47;43.00;;;;;;;8.44;100.00;100884.78;5084206;28;20067;-57
2023/02/23 08:08:50;;;;;;;119.43;56.00;;;;;;;8.36;100.00;100881.94;5091695;28;20078;-56
2023/02/23 08:11:17;;;;;;;103.68;49.78;;;;;;;8.53;100.00;100887.56;5091719;28;20044;-56
2023/02/23 08:13:44;;;;;;;86.05;42.53;;;;;;;8.52;100.00;100885.91;5091934;28;20044;-56
2023/02/23 08:16:11;;;;;;;89.50;43.47;;;;;;;8.57;100.00;100888.97;5091669;28;20048;-56
2023/02/23 08:18:38;;;;;;;90.28;41.58;;;;;;;8.60;100.00;100892.19;5091829;28;20054;-56
2023/02/23 08:21:04;;;;;;;92.00;42.53;;;;;;;8.54;100.00;100895.34;5092166;28;20134;-56
2023/02/23 08:23:32;;;;;;;105.47;44.55;;;;;;;8.38;100.00;100898.47;5082010;28;20040;-56
2023/02/23 08:26:00;;;;;;;101.07;41.88;;;;;;;8.28;100.00;100892.34;5071897;28;20067;-56
2023/02/23 08:28:29;;;;;;;108.97;42.47;;;;;;;8.33;100.00;100908.66;5087288;28;20032;-56
2023/02/23 08:30:56;;;;;;;108.07;42.30;;;;;;;8.33;100.00;100903.38;5092651;28;20062;-56
2023/02/23 08:33:23;;;;;;;109.93;42.80;;;;;;;8.35;100.00;100904.06;5087931;28;20077;-57
2023/02/23 08:35:52;;;;;;;109.22;42.17;;;;;;;8.24;100.00;100912.06;5090262;28;20032;-56
2023/02/23 08:38:21;;;;;;;112.82;42.20;;;;;;;8.20;100.00;100919.44;5085370;28;20549;-57
2023/02/23 08:40:47;;;;;;;112.18;42.67;;;;;;;8.22;100.00;100920.16;5085371;28;20117;-56
2023/02/23 08:43:14;;;;;;;115.80;45.00;;;;;;;8.25;100.00;100925.16;5091239;28;20708;-56
2023/02/23 08:45:42;;;;;;;113.65;41.97;;;;;;;8.03;100.00;100928.00;5090966;28;20051;-56
2023/02/23 08:48:09;;;;;;;114.28;43.97;;;;;;;8.08;100.00;100917.88;5092089;28;20493;-58
2023/02/23 08:50:35;;;;;;;115.00;43.45;;;;;;;8.13;100.00;100920.97;5093070;28;20061;-56
2023/02/23 08:53:03;;;;;;;113.40;42.53;;;;;;;8.12;100.00;100926.38;5089870;28;20094;-57
2023/02/23 08:55:30;;;;;;;115.30;44.38;;;;;;;8.13;100.00;100922.75;5081206;28;20048;-57
2023/02/23 08:57:57;;;;;;;122.65;44.45;;;;;;;8.05;100.00;100921.63;5079017;28;20093;-57
2023/02/23 09:00:24;;;;;;;117.13;43.55;;;;;;;8.16;100.00;100917.22;5080045;28;20045;-57
2023/02/23 09:02:51;;;;;;;127.88;43.63;;;;;;;8.15;100.00;100928.75;5085368;28;20046;-57
2023/02/23 09:05:18;;;;;;;131.80;47.33;;;;;;;8.10;100.00;100923.88;5093352;28;20477;-57
2023/02/23 09:07:45;;;;;;;128.55;46.90;;;;;;;8.08;100.00;100924.00;5083362;28;20043;-57
2023/02/23 09:10:15;;;;;;;130.77;47.28;;;;;;;8.13;100.00;100928.91;5076672;28;20398;-57
2023/02/23 09:12:41;;;;;;;129.23;43.95;;;;;;;8.18;100.00;100929.31;5084562;28;20741;-57
2023/02/23 09:15:08;;;;;;;128.00;46.08;;;;;;;8.35;100.00;100933.16;5091259;28;20052;-57
2023/02/23 09:17:35;;;;;;;120.30;45.03;;;;;;;8.45;100.00;100939.31;5085578;28;20097;-57
2023/02/23 09:20:04;;;;;;;119.03;43.85;;;;;;;8.41;100.00;100937.06;5081979;28;20040;-57
2023/02/23 09:22:31;;;;;;;117.07;43.90;;;;;;;8.35;100.00;100938.44;5094007;28;20044;-57
2023/02/23 09:24:58;;;;;;;121.78;43.95;;;;;;;8.36;100.00;100937.44;5081756;28;20032;-57
2023/02/23 09:27:24;;;;;;;114.88;43.40;;;;;;;8.33;100.00;100942.16;5088179;28;20040;-58
2023/02/23 09:29:51;;;;;;;117.10;42.97;;;;;;;8.23;100.00;100947.44;5083434;28;20078;-58
2023/02/23 09:32:18;;;;;;;122.90;44.78;;;;;;;8.24;100.00;100944.66;5094645;28;20044;-58
2023/02/23 09:34:47;;;;;;;114.35;45.08;;;;;;;8.19;100.00;100944.22;5087751;28;20028;-58
2023/02/23 09:37:14;;;;;;;121.53;44.20;;;;;;;8.24;100.00;100943.78;5091268;28;20044;-58
2023/02/23 09:39:42;;;;;;;126.75;45.72;;;;;;;8.23;100.00;100950.91;5087609;28;20123;-58
2023/02/23 09:42:33;;;;;;;121.70;44.80;;;;;;;8.21;100.00;100952.84;5097124;27;20051;-58
2023/02/23 09:45:15;;;;;;;121.53;44.10;;;;;;;8.27;100.00;100956.75;5083053;28;20051;-58
2023/02/23 09:48:07;;;;;;;112.85;42.75;;;;;;;8.27;100.00;100962.88;5034458;28;20047;-59
2023/02/23 09:50:37;;;;;;;115.50;43.20;;;;;;;8.23;100.00;100965.91;5089282;28;20434;-59
2023/02/23 09:53:28;;;;;;;115.10;42.05;;;;;;;8.27;100.00;100968.16;5070031;28;20052;-58
2023/02/23 09:55:57;;;;;;;111.93;41.30;;;;;;;8.38;100.00;100964.56;5086738;28;20071;-59
2023/02/23 09:58:30;;;;;;;112.03;42.42;;;;;;;8.41;100.00;100969.59;5080963;28;20131;-58
2023/02/23 10:01:27;;;;;;;105.00;40.75;;;;;;;8.49;100.00;100970.78;5085618;28;20055;-59
2023/02/23 10:04:34;;;;;;;102.95;41.55;;;;;;;8.43;100.00;100972.16;5076239;28;20476;-58
2023/02/23 10:07:33;;;;;;;112.82;42.38;;;;;;;8.43;100.00;100974.78;5085330;28;20051;-59
2023/02/23 10:10:22;;;;;;;101.38;39.10;;;;;;;8.43;100.00;100978.25;5084922;28;20051;-58
2023/02/23 10:13:01;;;;;;;97.90;39.28;;;;;;;8.39;100.00;100978.66;5079424;28;20057;-58
2023/02/23 10:15:51;;;;;;;108.00;39.67;;;;;;;8.49;100.00;100984.00;5078533;28;20154;-58
2023/02/23 10:18:33;;;;;;;104.65;40.88;;;;;;;8.56;100.00;100993.06;5095417;28;20044;-58
2023/02/23 10:21:36;;;;;;;99.10;38.88;;;;;;;8.45;100.00;100996.63;5079276;28;20047;-58
2023/02/23 10:24:11;;;;;;;100.35;38.92;;;;;;;8.38;100.00;100991.00;5091629;28;20036;-58
2023/02/23 10:26:46;;;;;;;105.22;38.78;;;;;;;8.26;100.00;100992.09;5052940;28;20083;-58
2023/02/23 10:29:25;;;;;;;115.25;38.38;;;;;;;8.24;100.00;101000.16;5075119;28;20051;-55
2023/02/23 10:31:59;;;;;;;109.50;40.78;;;;;;;8.33;100.00;100997.66;5085732;28;20036;-56
2023/02/23 10:34:28;;;;;;;124.38;40.88;;;;;;;8.29;100.00;101007.66;5090203;28;20075;-55
2023/02/23 10:37:04;;;;;;;112.40;42.13;;;;;;;8.25;100.00;101003.63;5069308;28;20104;-55
2023/02/23 10:39:32;;;;;;;125.10;42.72;;;;;;;8.30;100.00;101008.53;5093666;28;20090;-55
2023/02/23 10:42:04;;;;;;;115.45;41.65;;;;;;;8.30;100.00;101009.34;5097643;28;20044;-55
2023/02/23 10:44:31;;;;;;;121.22;42.65;;;;;;;8.28;100.00;101008.66;5097853;28;20100;-55
2023/02/23 10:47:05;;;;;;;124.13;41.85;;;;;;;8.25;100.00;101008.91;5096198;28;20043;-55
2023/02/23 10:49:41;;;;;;;112.18;40.58;;;;;;;8.33;100.00;101006.47;5097358;28;20048;-55
2023/02/23 10:52:13;;;;;;;125.80;41.38;;;;;;;8.30;100.00;101006.72;5078961;28;20048;-58
2023/02/23 10:54:46;;;;;;;122.80;41.88;;;;;;;8.37;100.00;101007.84;5098469;27;20040;-58
2023/02/23 10:57:31;;;;;;;108.85;38.95;;;;;;;8.37;100.00;101005.22;5079183;28;20043;-58
2023/02/23 11:02:57;;;;;;;125.40;41.20;;;;;;;8.30;100.00;101005.88;5146405;27;19921;-57
2023/02/23 11:05:46;;;;;;;115.38;40.95;;;;;;;8.26;100.00;101011.44;5124417;27;20121;-56
2023/02/23 11:08:21;;;;;;;103.55;38.13;;;;;;;8.23;100.00;101005.56;5134091;27;20515;-61
2023/02/23 11:11:17;;;;;;;103.53;35.17;;;;;;;8.14;100.00;101012.47;5136979;27;20031;-57
2023/02/23 11:13:48;;;;;;;96.15;34.58;;;;;;;8.15;100.00;101015.94;5129306;27;20043;-57
2023/02/23 11:16:20;;;;;;;84.80;31.70;;;;;;;8.11;100.00;101012.72;5124033;27;20549;-57
2023/02/23 11:19:03;;;;;;;94.25;31.75;;;;;;;8.30;100.00;101014.66;5124236;27;20050;-56
2023/02/23 11:21:36;;;;;;;83.45;31.38;;;;;;;8.25;100.00;101017.66;5121497;27;20031;-58
2023/02/23 11:24:33;;;;;;;85.05;32.13;;;;;;;8.29;100.00;101018.25;5132876;27;20404;-58
2023/02/23 11:27:05;;;;;;;92.88;31.85;;;;;;;8.35;100.00;101016.88;5133296;27;20066;-57
2023/02/23 11:29:37;;;;;;;86.80;30.65;;;;;;;8.37;100.00;101018.44;5116831;27;20049;-57
2023/02/23 11:32:22;;;;;;;89.38;31.75;;;;;;;8.36;100.00;101021.19;5136425;27;20497;-57
2023/02/23 11:35:26;;;;;;;92.53;32.17;;;;;;;8.56;100.00;101008.94;5132964;27;20130;-58
2023/02/23 11:37:54;;;;;;;82.35;29.77;;;;;;;8.57;100.00;101005.31;5138448;27;20070;-57
2023/02/23 11:43:08;;;;;;;81.35;28.92;;;;;;;8.53;100.00;100999.47;5085385;27;20416;-57
2023/02/23 11:45:45;;;;;;;81.97;29.70;;;;;;;8.44;100.00;100997.59;5020009;28;20111;-57
2023/02/23 11:48:31;;;;;;;84.15;30.67;;;;;;;8.40;100.00;101004.09;5050304;28;20098;-57
2023/02/23 11:50:59;;;;;;;87.78;30.27;;;;;;;8.33;100.00;100998.53;5061043;28;20055;-58
2023/02/23 11:53:33;;;;;;;95.03;31.33;;;;;;;8.39;100.00;100999.81;5055879;28;20044;-58
2023/02/23 11:56:06;;;;;;;88.95;32.80;;;;;;;8.27;100.00;101001.69;5063328;28;20148;-58
2023/02/23 11:58:42;;;;;;;91.35;32.47;;;;;;;8.27;100.00;100993.75;5055293;28;20084;-58
2023/02/23 12:01:13;;;;;;;89.47;30.90;;;;;;;8.20;100.00;100998.72;5059332;28;20128;-58
2023/02/23 12:03:46;;;;;;;82.78;31.58;;;;;;;8.22;100.00;101003.88;5046232;28;20040;-55
2023/02/23 12:06:34;;;;;;;97.18;33.33;;;;;;;8.17;100.00;101000.81;5045172;28;20057;-54
2023/02/23 12:09:17;;;;;;;92.38;32.30;;;;;;;8.06;100.00;100999.09;5057456;28;20045;-55
2023/02/23 12:11:54;;;;;;;84.20;30.13;;;;;;;7.97;100.00;101002.53;5064429;28;20588;-55
2023/02/23 12:14:48;;;;;;;70.55;26.33;;;;;;;7.86;100.00;100998.97;5058877;28;20055;-54
2023/02/23 12:17:20;;;;;;;73.13;25.15;;;;;;;7.87;100.00;100999.81;5025497;28;20601;-54
2023/02/23 12:20:02;;;;;;;72.53;26.83;;;;;;;7.82;100.00;100989.66;5069501;28;20052;-55
2023/02/23 12:22:35;;;;;;;61.28;25.13;;;;;;;7.87;100.00;100999.81;5055895;28;20103;-55
2023/02/23 12:25:09;;;;;;;72.60;25.73;;;;;;;7.81;100.00;100995.88;5060301;28;20051;-55
2023/02/23 12:27:43;;;;;;;66.00;25.70;;;;;;;7.84;100.00;100993.00;5049592;28;20040;-56
2023/02/23 12:30:30;;;;;;;68.43;25.42;;;;;;;7.80;100.00;100994.19;5039011;28;20053;-55
2023/02/23 12:33:13;;;;;;;72.50;26.45;;;;;;;7.81;100.00;100995.06;5068870;28;20149;-55
2023/02/23 12:35:50;;;;;;;73.95;26.98;;;;;;;7.82;100.00;100992.28;5060493;28;20661;-55
2023/02/23 12:38:55;;;;;;;72.22;25.98;;;;;;;7.91;100.00;101003.03;5041362;28;20151;-55
2023/02/23 12:41:50;;;;;;;65.82;25.30;;;;;;;7.94;100.00;101000.97;5065311;28;20049;-55
2023/02/23 12:44:48;;;;;;;67.10;23.92;;;;;;;8.05;100.00;101002.69;5061062;28;20067;-54
2023/02/23 12:47:29;;;;;;;69.32;25.38;;;;;;;8.06;100.00;101007.84;5043580;28;20055;-55
2023/02/23 12:50:12;;;;;;;67.93;25.40;;;;;;;8.14;100.00;101003.72;5049129;28;20558;-54
2023/02/23 12:52:52;;;;;;;59.35;24.30;;;;;;;8.31;100.00;101004.91;5055943;28;20828;-53
2023/02/23 12:55:40;;;;;;;69.40;24.30;;;;;;;8.41;100.00;100998.69;5043725;28;20144;-55
2023/02/23 12:58:33;;;;;;;55.72;22.60;;;;;;;8.34;100.00;101007.28;5043927;28;20040;-55
2023/02/23 13:01:11;;;;;;;57.97;22.58;;;;;;;8.30;100.00;101003.25;5053466;28;20494;-55
2023/02/23 13:04:06;;;;;;;56.03;22.67;;;;;;;8.23;100.00;101003.75;5032644;28;20041;-55
2023/02/23 13:07:01;;;;;;;55.70;20.85;;;;;;;8.25;100.00;100996.53;5009151;28;20547;-55
2023/02/23 13:09:43;;;;;;;57.42;21.75;;;;;;;8.29;100.00;101006.84;5005516;28;20074;-55